Time;durP1;ratioP1;P1;durP2;ratioP2;P2;SDS_P1;SDS_P2;PMS_P1;PMS_P2;Temp;Humidity;BMP_temperature;BMP_pressure;BME280_temperature;BME280_humidity;BME280_pressure;Samples;Min_cycle;Max_cycle;Signal;HPM_P1;HPM_P2
2022/09/30 00:01:58;;;;;;;5.25;4.78;;;8.10;99.90;;;;;;4760443;29;20051;-68
2022/09/30 00:04:24;;;;;;;5.85;4.95;;;8.40;99.90;;;;;;4795742;29;20179;-68
2022/09/30 00:06:51;;;;;;;5.88;5.28;;;8.10;99.90;;;;;;4779998;29;20062;-68
2022/09/30 00:09:20;;;;;;;5.25;4.78;;;8.30;99.90;;;;;;4802662;29;20552;-68
2022/09/30 00:11:49;;;;;;;5.13;4.38;;;8.10;99.90;;;;;;4804289;29;20499;-68
2022/09/30 00:14:19;;;;;;;5.00;4.60;;;8.20;99.90;;;;;;4789237;29;20046;-68
2022/09/30 00:16:45;;;;;;;5.35;4.95;;;8.20;99.90;;;;;;4772203;29;20067;-68
2022/09/30 00:19:11;;;;;;;5.38;4.88;;;8.10;99.90;;;;;;4783613;29;20137;-68
2022/09/30 00:21:37;;;;;;;5.00;4.13;;;8.20;99.90;;;;;;4801435;29;20142;-68
2022/09/30 00:24:04;;;;;;;4.90;4.47;;;8.10;99.90;;;;;;4774918;29;20071;-68
2022/09/30 00:26:31;;;;;;;5.88;4.60;;;8.10;99.90;;;;;;4787590;29;20050;-67
2022/09/30 00:28:58;;;;;;;5.47;4.93;;;8.10;99.90;;;;;;4805514;29;20165;-68
2022/09/30 00:31:26;;;;;;;5.47;4.97;;;8.10;99.90;;;;;;4786778;29;20127;-68
2022/09/30 00:34:07;;;;;;;7.07;4.68;;;8.10;99.90;;;;;;4796679;29;20125;-68
2022/09/30 00:36:48;;;;;;;4.65;4.25;;;8.10;99.90;;;;;;4791325;29;20082;-68
2022/09/30 00:39:20;;;;;;;6.25;4.60;;;8.10;99.90;;;;;;4783397;29;20066;-68
2022/09/30 00:41:50;;;;;;;5.00;4.40;;;8.10;99.90;;;;;;4804844;29;20107;-68
2022/09/30 00:44:54;;;;;;;4.80;4.40;;;8.10;99.90;;;;;;4805025;29;20496;-68
2022/09/30 00:47:45;;;;;;;5.47;4.97;;;8.10;99.90;;;;;;4767403;29;20066;-68
2022/09/30 00:50:44;;;;;;;4.93;4.53;;;8.00;99.90;;;;;;4800353;29;20125;-68
2022/09/30 00:53:35;;;;;;;5.60;4.90;;;8.10;99.90;;;;;;4787323;29;20054;-68
2022/09/30 00:56:10;;;;;;;5.25;4.75;;;8.10;99.90;;;;;;4786131;29;20055;-68
2022/09/30 00:58:52;;;;;;;5.50;5.03;;;8.00;99.90;;;;;;4783314;29;20059;-68
2022/09/30 01:01:18;;;;;;;5.40;4.88;;;8.00;99.90;;;;;;4780492;29;20059;-68
2022/09/30 01:03:49;;;;;;;4.22;3.90;;;8.00;99.90;;;;;;4802316;29;20059;-68
2022/09/30 01:06:16;;;;;;;4.60;4.20;;;8.20;99.90;;;;;;4791276;29;20061;-68
2022/09/30 01:08:43;;;;;;;4.82;4.43;;;8.00;99.90;;;;;;4789703;29;20090;-68
2022/09/30 01:11:09;;;;;;;4.78;4.38;;;8.00;99.90;;;;;;4805720;29;20492;-68
2022/09/30 01:13:38;;;;;;;5.30;4.22;;;8.00;99.90;;;;;;4808156;29;20050;-68
2022/09/30 01:16:13;;;;;;;5.15;4.65;;;8.00;99.90;;;;;;4799126;29;20100;-68
2022/09/30 01:18:56;;;;;;;4.32;4.03;;;8.00;99.90;;;;;;4790145;30;20142;-68
2022/09/30 01:21:44;;;;;;;4.95;4.45;;;7.90;99.90;;;;;;4783310;29;20055;-68
2022/09/30 01:24:31;;;;;;;5.00;4.60;;;7.90;99.90;;;;;;4781982;30;20063;-67
2022/09/30 01:27:25;;;;;;;4.70;4.30;;;7.90;99.90;;;;;;4792841;29;20182;-68
2022/09/30 01:30:02;;;;;;;;;;;7.80;99.90;;;;;;4806988;29;20061;-68
2022/09/30 01:32:47;;;;;;;6.40;4.13;;;7.80;99.90;;;;;;4790264;29;19921;-68
2022/09/30 01:35:19;;;;;;;5.05;4.00;;;7.70;99.90;;;;;;4806051;29;20054;-68
2022/09/30 01:38:05;;;;;;;5.23;4.77;;;7.70;99.90;;;;;;4779583;30;20047;-68
2022/09/30 01:44:28;;;;;;;4.85;4.43;;;7.70;99.90;;;;;;4794836;29;20074;-68
2022/09/30 01:47:25;;;;;;;4.13;3.38;;;7.60;99.90;;;;;;4799901;29;20500;-68
2022/09/30 01:50:42;;;;;;;4.88;4.47;;;7.50;99.90;;;;;;4789870;29;20047;-68
2022/09/30 01:53:29;;;;;;;5.55;5.05;;;7.50;99.90;;;;;;4773133;30;20066;-68
2022/09/30 01:56:06;;;;;;;5.72;5.22;;;7.50;99.90;;;;;;4778691;29;20046;-67
2022/09/30 01:58:37;;;;;;;5.22;4.75;;;7.50;99.90;;;;;;4789185;29;20177;-68
2022/09/30 02:01:10;;;;;;;4.70;4.30;;;7.50;99.90;;;;;;4804044;29;20054;-68
2022/09/30 02:03:47;;;;;;;5.40;4.90;;;7.40;99.90;;;;;;4804046;29;20043;-68
2022/09/30 02:06:20;;;;;;;5.35;4.85;;;7.40;99.90;;;;;;4790588;29;20090;-68
2022/09/30 02:08:48;;;;;;;5.60;5.15;;;7.40;99.90;;;;;;4788732;29;20050;-68
2022/09/30 02:11:24;;;;;;;5.85;5.28;;;7.40;99.90;;;;;;4801305;29;20059;-68
2022/09/30 02:13:55;;;;;;;5.63;5.15;;;7.30;99.90;;;;;;4791893;29;20059;-67
2022/09/30 02:16:40;;;;;;;5.88;5.38;;;7.30;99.90;;;;;;4800482;29;20533;-68
2022/09/30 02:19:36;;;;;;;5.65;5.15;;;7.30;99.90;;;;;;4789290;29;20134;-67
2022/09/30 02:22:07;;;;;;;5.68;5.13;;;7.30;99.90;;;;;;4795589;29;20063;-68
2022/09/30 02:24:38;;;;;;;5.88;5.38;;;7.30;99.90;;;;;;4804749;29;20059;-67
2022/09/30 02:27:11;;;;;;;5.63;5.13;;;7.30;99.90;;;;;;4804710;29;20188;-67
2022/09/30 02:29:42;;;;;;;4.80;4.40;;;7.20;99.90;;;;;;4787030;30;20103;-68
2022/09/30 02:32:17;;;;;;;5.35;4.47;;;7.40;99.90;;;;;;4794337;29;20053;-68
2022/09/30 02:34:52;;;;;;;5.35;4.90;;;7.00;99.90;;;;;;4807198;29;20119;-68
2022/09/30 02:37:42;;;;;;;6.72;5.50;;;7.00;99.90;;;;;;4799996;29;20215;-68
2022/09/30 02:40:20;;;;;;;6.30;5.70;;;7.10;99.90;;;;;;4790612;29;20107;-67
2022/09/30 02:42:46;;;;;;;6.47;5.70;;;7.00;99.90;;;;;;4789740;29;20051;-67
2022/09/30 02:45:15;;;;;;;5.03;4.63;;;7.00;99.90;;;;;;4797500;29;20112;-68
2022/09/30 02:47:59;;;;;;;6.38;5.80;;;6.90;99.90;;;;;;4791830;29;20108;-68
2022/09/30 02:50:37;;;;;;;6.65;5.90;;;6.90;99.90;;;;;;4797555;29;20046;-68
2022/09/30 02:53:11;;;;;;;7.50;5.28;;;6.90;99.90;;;;;;4806111;29;20058;-68
2022/09/30 02:55:59;;;;;;;7.25;6.40;;;6.90;99.90;;;;;;4800637;29;20051;-68
2022/09/30 02:58:25;;;;;;;6.70;6.10;;;6.90;99.90;;;;;;4800487;29;20142;-68
2022/09/30 03:00:52;;;;;;;7.90;6.53;;;6.90;99.90;;;;;;4789319;29;20142;-68
2022/09/30 03:03:22;;;;;;;6.03;5.47;;;6.80;99.90;;;;;;4799079;29;20054;-67
2022/09/30 03:05:49;;;;;;;6.43;5.82;;;6.80;99.90;;;;;;4806157;29;20062;-67
2022/09/30 03:08:15;;;;;;;6.90;6.20;;;6.70;99.90;;;;;;4802893;29;20062;-67
2022/09/30 03:10:41;;;;;;;7.30;6.55;;;6.70;99.90;;;;;;4800372;29;20059;-67
2022/09/30 03:13:49;;;;;;;6.13;5.63;;;6.80;99.90;;;;;;4798772;29;20063;-68
2022/09/30 03:16:18;;;;;;;5.47;5.07;;;6.70;99.90;;;;;;4731738;29;20063;-68
2022/09/30 03:19:00;;;;;;;5.65;5.10;;;6.60;99.90;;;;;;4789346;29;20059;-68
2022/09/30 03:21:36;;;;;;;6.50;5.90;;;6.60;99.90;;;;;;4804691;29;20070;-68
2022/09/30 03:24:05;;;;;;;6.70;6.10;;;6.60;99.90;;;;;;4787914;29;20059;-68
2022/09/30 03:26:45;;;;;;;6.65;6.05;;;6.60;99.90;;;;;;4799902;29;20059;-68
2022/09/30 03:29:28;;;;;;;8.90;8.00;;;6.60;99.90;;;;;;4805589;29;20063;-68
2022/09/30 03:32:14;;;;;;;12.13;8.50;;;6.50;99.90;;;;;;4787929;29;20065;-68
2022/09/30 03:34:49;;;;;;;12.90;9.35;;;6.50;99.90;;;;;;4801175;29;20100;-68
2022/09/30 03:37:29;;;;;;;12.23;10.93;;;6.50;99.90;;;;;;4804607;29;20062;-68
2022/09/30 03:40:09;;;;;;;20.08;11.90;;;6.50;99.90;;;;;;4781178;29;20103;-68
2022/09/30 03:42:46;;;;;;;12.32;10.70;;;6.50;99.90;;;;;;4771640;30;20063;-68
2022/09/30 03:45:25;;;;;;;10.68;9.65;;;6.50;99.90;;;;;;4795451;29;20137;-68
2022/09/30 03:47:54;;;;;;;7.28;6.55;;;6.50;99.90;;;;;;4760944;30;20055;-68
2022/09/30 03:50:23;;;;;;;7.60;6.90;;;6.40;99.90;;;;;;4788066;29;20047;-67
2022/09/30 03:52:49;;;;;;;6.90;6.20;;;6.50;99.90;;;;;;4787510;29;20061;-67
2022/09/30 03:55:16;;;;;;;6.63;5.93;;;6.40;99.90;;;;;;4777189;30;20063;-67
2022/09/30 03:57:43;;;;;;;5.57;5.15;;;6.40;99.90;;;;;;4800282;29;20059;-68
2022/09/30 04:00:10;;;;;;;6.00;5.50;;;6.30;99.90;;;;;;4789172;29;20070;-68
2022/09/30 04:02:36;;;;;;;6.50;5.15;;;6.30;99.90;;;;;;4805132;29;20123;-68
2022/09/30 04:05:03;;;;;;;5.70;5.20;;;6.30;99.90;;;;;;4802848;29;20058;-68
2022/09/30 04:07:28;;;;;;;5.78;5.28;;;6.30;99.90;;;;;;4802420;29;20070;-67
2022/09/30 04:09:55;;;;;;;5.93;5.13;;;6.30;99.90;;;;;;4795504;29;20047;-68
2022/09/30 04:12:20;;;;;;;5.68;4.93;;;6.30;99.90;;;;;;4792591;29;20500;-68
2022/09/30 04:14:46;;;;;;;5.80;5.30;;;6.30;99.90;;;;;;4786609;30;20062;-68
2022/09/30 04:17:12;;;;;;;22.27;6.10;;;6.30;99.90;;;;;;4771156;30;20063;-68
2022/09/30 04:19:39;;;;;;;5.97;4.95;;;6.30;99.90;;;;;;4795490;29;20194;-68
2022/09/30 04:22:06;;;;;;;6.25;5.65;;;6.20;99.90;;;;;;4788040;29;20085;-68
2022/09/30 04:24:32;;;;;;;15.15;6.10;;;6.20;99.90;;;;;;4802481;29;20533;-67
2022/09/30 04:26:57;;;;;;;15.98;6.03;;;6.20;99.90;;;;;;4779073;30;20117;-68
2022/09/30 04:29:25;;;;;;;16.25;6.25;;;6.20;99.90;;;;;;4795103;29;20069;-68
2022/09/30 04:31:51;;;;;;;12.98;5.60;;;6.20;99.90;;;;;;4788965;29;20486;-68
2022/09/30 04:34:21;;;;;;;9.07;5.63;;;6.10;99.90;;;;;;4781428;29;20143;-68
2022/09/30 04:36:52;;;;;;;5.93;5.43;;;6.10;99.90;;;;;;4794523;29;20055;-68
2022/09/30 04:43:04;;;;;;;5.45;4.50;;;6.00;99.90;;;;;;4790905;29;20087;-68
2022/09/30 04:45:30;;;;;;;6.63;5.80;;;6.00;99.90;;;;;;4789491;29;20102;-68
2022/09/30 04:47:57;;;;;;;5.30;4.80;;;6.00;99.90;;;;;;4803626;29;20106;-68
2022/09/30 04:50:23;;;;;;;5.35;4.95;;;5.90;99.90;;;;;;4802861;29;20047;-67
2022/09/30 04:52:49;;;;;;;6.40;5.90;;;5.90;99.90;;;;;;4788367;29;20057;-67
2022/09/30 04:55:16;;;;;;;8.25;5.53;;;5.90;99.90;;;;;;4780567;30;20067;-68
2022/09/30 04:57:54;;;;;;;5.95;5.38;;;5.90;99.90;;;;;;4803283;29;20063;-67
2022/09/30 05:00:20;;;;;;;5.97;5.47;;;5.80;99.90;;;;;;4791418;29;20059;-68
2022/09/30 05:02:46;;;;;;;5.72;5.22;;;5.80;99.90;;;;;;4782993;29;20414;-68
2022/09/30 05:05:37;;;;;;;5.85;5.35;;;5.80;99.90;;;;;;4785155;30;20044;-68
2022/09/30 05:08:56;;;;;;;5.13;4.72;;;5.80;99.90;;;;;;4748429;30;20060;-68
2022/09/30 05:19:34;;;;;;;5.45;5.05;;;5.70;99.90;;;;;;4749200;30;20059;-68
2022/09/30 05:22:04;;;;;;;6.38;5.88;;;5.70;99.90;;;;;;4737251;30;20522;-68
2022/09/30 05:24:57;;;;;;;6.32;5.80;;;5.60;99.90;;;;;;4735932;30;20153;-68
2022/09/30 05:27:24;;;;;;;6.53;5.80;;;5.60;99.90;;;;;;4748246;30;20095;-67
2022/09/30 05:29:49;;;;;;;6.93;6.20;;;5.60;99.90;;;;;;4749540;30;20113;-67
2022/09/30 05:32:17;;;;;;;6.55;6.05;;;5.60;99.90;;;;;;4765435;29;20070;-68
2022/09/30 05:34:42;;;;;;;6.90;6.30;;;5.60;99.90;;;;;;4807018;29;20061;-68
2022/09/30 05:37:09;;;;;;;5.75;5.25;;;5.60;99.90;;;;;;4807483;29;20063;-68
2022/09/30 05:39:35;;;;;;;6.97;6.28;;;5.60;99.90;;;;;;4786098;29;20066;-68
2022/09/30 05:42:01;;;;;;;7.05;6.45;;;5.60;99.90;;;;;;4794260;29;20058;-68
2022/09/30 05:44:27;;;;;;;6.45;5.90;;;5.60;99.90;;;;;;4789321;29;20059;-68
2022/09/30 05:46:52;;;;;;;7.25;6.55;;;5.60;99.90;;;;;;4774542;30;20108;-68
2022/09/30 05:49:18;;;;;;;7.03;6.43;;;5.60;99.90;;;;;;4790073;30;20055;-68
2022/09/30 05:51:43;;;;;;;7.72;7.03;;;5.60;99.90;;;;;;4773776;30;20059;-68
2022/09/30 05:54:10;;;;;;;6.88;6.25;;;5.60;99.90;;;;;;4789485;30;20460;-68
2022/09/30 05:56:37;;;;;;;6.88;6.30;;;5.60;99.90;;;;;;4788591;30;20402;-68
2022/09/30 05:59:04;;;;;;;8.15;7.45;;;5.60;99.90;;;;;;4775238;29;20609;-69
2022/09/30 06:01:29;;;;;;;7.72;6.97;;;5.60;99.90;;;;;;4791362;29;20434;-68
2022/09/30 06:03:55;;;;;;;7.82;6.97;;;5.60;99.90;;;;;;4807475;29;20108;-68
2022/09/30 06:06:20;;;;;;;7.22;6.63;;;5.60;99.90;;;;;;4791525;29;20058;-68
2022/09/30 06:08:46;;;;;;;6.75;6.15;;;5.60;99.90;;;;;;4791114;29;20092;-68
2022/09/30 06:11:18;;;;;;;7.72;6.85;;;5.60;99.90;;;;;;4791310;29;20058;-68
2022/09/30 06:13:46;;;;;;;8.70;7.93;;;5.60;99.90;;;;;;4788690;29;20055;-68
2022/09/30 06:16:12;;;;;;;7.05;6.45;;;5.70;99.90;;;;;;4785817;29;20181;-68
2022/09/30 06:18:40;;;;;;;7.13;6.25;;;5.70;99.90;;;;;;4791072;29;20158;-68
2022/09/30 06:21:06;;;;;;;7.70;7.10;;;5.70;99.90;;;;;;4791307;29;20057;-68
2022/09/30 06:23:33;;;;;;;7.95;7.25;;;5.80;99.90;;;;;;4806343;29;20066;-68
2022/09/30 06:26:00;;;;;;;7.70;7.00;;;5.80;99.90;;;;;;4791124;29;20201;-68
2022/09/30 06:28:26;;;;;;;7.32;6.70;;;5.80;99.90;;;;;;4790629;29;20054;-68
2022/09/30 06:30:52;;;;;;;8.90;8.07;;;5.90;99.90;;;;;;4789056;29;20077;-68
2022/09/30 06:33:18;;;;;;;8.02;7.30;;;5.90;99.90;;;;;;4789484;29;20059;-68
2022/09/30 06:35:46;;;;;;;7.80;7.00;;;6.00;99.90;;;;;;4789358;30;20152;-68
2022/09/30 06:38:14;;;;;;;7.57;6.97;;;6.10;99.90;;;;;;4788703;30;20059;-68
2022/09/30 06:40:41;;;;;;;8.18;7.38;;;6.10;99.90;;;;;;4789277;30;20140;-68
2022/09/30 06:43:07;;;;;;;7.90;7.20;;;6.20;99.90;;;;;;4789212;30;20051;-68
2022/09/30 06:45:34;;;;;;;8.32;7.40;;;6.30;99.90;;;;;;4773200;30;20568;-68
2022/09/30 06:48:07;;;;;;;9.20;8.30;;;6.40;99.90;;;;;;4784534;29;20512;-68
2022/09/30 06:50:33;;;;;;;9.50;8.00;;;6.50;99.90;;;;;;4787257;30;20059;-68
2022/09/30 06:53:16;;;;;;;10.40;9.40;;;6.60;99.90;;;;;;4788849;29;20047;-68
2022/09/30 06:55:42;;;;;;;9.60;8.70;;;6.70;99.90;;;;;;4787579;29;20067;-68
2022/09/30 07:02:16;;;;;;;11.52;10.00;;;7.00;99.90;;;;;;4788403;30;20054;-69
2022/09/30 07:07:53;;;;;;;11.93;10.82;;;7.20;99.90;;;;;;4790519;29;20559;-68
2022/09/30 07:10:19;;;;;;;12.38;10.02;;;7.40;99.90;;;;;;4789724;29;20051;-68
2022/09/30 07:13:40;;;;;;;12.25;10.65;;;7.50;99.90;;;;;;4806751;29;20058;-68
2022/09/30 07:16:07;;;;;;;12.38;11.00;;;7.60;99.90;;;;;;4790296;29;20047;-68
2022/09/30 07:18:35;;;;;;;12.70;11.50;;;7.80;99.90;;;;;;4806573;29;20518;-68
2022/09/30 07:21:51;;;;;;;12.40;10.80;;;7.90;99.90;;;;;;4805030;29;20079;-68
2022/09/30 07:24:42;;;;;;;14.98;11.60;;;8.10;99.90;;;;;;4789549;29;20082;-68
2022/09/30 07:27:08;;;;;;;14.35;11.60;;;8.20;99.90;;;;;;4786288;30;20079;-68
2022/09/30 07:29:33;;;;;;;14.02;12.35;;;8.30;99.90;;;;;;4789163;29;20051;-68
2022/09/30 07:31:59;;;;;;;13.30;11.43;;;8.40;99.90;;;;;;4790573;29;20062;-69
2022/09/30 07:34:25;;;;;;;20.92;13.65;;;8.50;99.90;;;;;;4789739;29;20055;-68
2022/09/30 07:36:51;;;;;;;19.23;12.85;;;8.60;99.90;;;;;;4806597;29;20097;-69
2022/09/30 07:39:16;;;;;;;20.60;13.55;;;8.70;99.90;;;;;;4789529;29;20125;-69
2022/09/30 07:41:44;;;;;;;20.40;14.43;;;8.80;99.90;;;;;;4790651;29;20388;-69
2022/09/30 07:44:13;;;;;;;24.40;14.52;;;9.00;99.90;;;;;;4792017;29;20058;-68
2022/09/30 07:46:39;;;;;;;29.13;15.75;;;9.10;99.90;;;;;;4788960;29;20362;-68
2022/09/30 07:49:11;;;;;;;26.52;14.68;;;9.10;99.90;;;;;;4772127;30;20059;-68
2022/09/30 07:51:39;;;;;;;27.73;15.33;;;9.20;99.90;;;;;;4772424;30;20051;-68
2022/09/30 07:54:14;;;;;;;27.70;15.80;;;9.30;99.90;;;;;;4791946;29;20046;-68
2022/09/30 07:56:42;;;;;;;30.00;16.42;;;9.60;99.90;;;;;;4804939;29;20063;-68
2022/09/30 07:59:09;;;;;;;29.88;16.05;;;9.60;99.90;;;;;;4788402;29;20071;-69
2022/09/30 08:01:35;;;;;;;32.00;16.63;;;9.60;99.90;;;;;;4790151;29;20062;-68
2022/09/30 08:04:04;;;;;;;29.65;16.75;;;9.70;99.90;;;;;;4789578;29;20058;-69
2022/09/30 08:06:37;;;;;;;27.23;15.45;;;9.80;99.90;;;;;;4796039;29;20089;-68
2022/09/30 08:09:03;;;;;;;22.27;14.05;;;10.20;99.90;;;;;;4795884;29;20054;-68
2022/09/30 08:11:33;;;;;;;22.00;14.45;;;10.20;99.90;;;;;;4787986;30;20047;-68
2022/09/30 08:14:23;;;;;;;17.77;13.27;;;10.20;99.90;;;;;;4788066;29;20059;-68
2022/09/30 08:16:50;;;;;;;17.92;12.50;;;10.00;99.90;;;;;;4793043;29;20067;-69
2022/09/30 08:19:18;;;;;;;17.85;12.18;;;10.70;99.90;;;;;;4772650;29;20058;-69
2022/09/30 08:21:54;;;;;;;18.83;12.45;;;11.40;99.90;;;;;;4790205;29;20134;-69
2022/09/30 08:27:53;;;;;;;14.65;12.02;;;11.10;99.90;;;;;;4804502;29;20058;-69
2022/09/30 08:30:28;;;;;;;15.75;11.23;;;10.90;99.90;;;;;;4797247;29;20534;-69
2022/09/30 08:33:03;;;;;;;13.73;11.32;;;11.10;99.90;;;;;;4789627;29;20054;-69
2022/09/30 08:35:38;;;;;;;13.10;11.25;;;11.00;99.90;;;;;;4776371;29;20051;-70
2022/09/30 08:42:07;;;;;;;;;;;12.30;99.90;;;;;;4805950;29;20439;-69
2022/09/30 08:44:49;;;;;;;11.80;9.45;;;11.70;99.90;;;;;;4803999;29;19974;-69
2022/09/30 08:47:45;;;;;;;10.95;9.85;;;11.90;99.90;;;;;;4787420;29;20058;-68
2022/09/30 08:51:00;;;;;;;11.25;10.02;;;12.00;99.90;;;;;;4793002;29;20047;-69
2022/09/30 08:53:30;;;;;;;9.27;8.32;;;12.20;99.90;;;;;;4751779;30;20055;-70
2022/09/30 08:56:01;;;;;;;10.20;8.40;;;12.30;99.90;;;;;;4805125;29;20071;-71
2022/09/30 08:58:32;;;;;;;12.52;8.25;;;12.30;99.90;;;;;;4788869;29;20093;-72
2022/09/30 09:01:13;;;;;;;9.93;8.20;;;12.50;99.90;;;;;;4789018;29;20094;-67
2022/09/30 09:03:40;;;;;;;9.05;8.05;;;12.60;99.90;;;;;;4795169;29;20059;-69
2022/09/30 09:06:17;;;;;;;8.75;7.95;;;12.70;99.90;;;;;;4784653;29;20458;-68
2022/09/30 09:08:51;;;;;;;8.93;7.22;;;12.90;99.90;;;;;;4786953;30;20055;-69
2022/09/30 09:11:57;;;;;;;8.30;7.32;;;12.90;99.90;;;;;;4787142;30;20094;-69
2022/09/30 09:14:43;;;;;;;7.32;6.63;;;13.20;99.90;;;;;;4771025;30;20476;-70
2022/09/30 09:17:37;;;;;;;7.70;7.00;;;13.30;99.90;;;;;;4786930;29;20067;-70
2022/09/30 09:20:35;;;;;;;7.70;6.10;;;13.40;99.90;;;;;;4803448;29;20057;-68
2022/09/30 09:23:02;;;;;;;6.72;5.38;;;13.50;99.90;;;;;;4775337;30;20059;-68
2022/09/30 09:25:29;;;;;;;6.10;5.50;;;14.30;99.90;;;;;;4790762;30;20074;-68
2022/09/30 09:28:04;;;;;;;6.55;5.90;;;13.60;99.90;;;;;;4789527;30;20059;-70
2022/09/30 09:30:44;;;;;;;6.65;5.38;;;13.90;99.90;;;;;;4774229;30;20059;-70
2022/09/30 09:33:22;;;;;;;5.57;5.15;;;13.90;99.90;;;;;;4789029;30;20078;-70
2022/09/30 09:36:15;;;;;;;5.30;4.80;;;14.00;99.90;;;;;;4780945;29;20082;-70
2022/09/30 09:38:55;;;;;;;4.60;4.22;;;14.10;99.90;;;;;;4773252;30;20127;-71
2022/09/30 09:41:55;;;;;;;4.75;4.30;;;14.20;99.90;;;;;;4774113;30;20059;-71
2022/09/30 09:44:31;;;;;;;5.38;4.40;;;14.50;99.90;;;;;;4797443;29;20057;-70
2022/09/30 09:47:47;;;;;;;4.35;3.95;;;14.50;99.90;;;;;;4803482;29;20512;-68
2022/09/30 09:50:40;;;;;;;3.80;3.50;;;15.30;99.90;;;;;;4786562;30;20059;-68
2022/09/30 09:56:32;;;;;;;5.10;4.70;;;14.60;99.90;;;;;;4751251;30;20067;-70
2022/09/30 09:59:07;;;;;;;5.35;4.82;;;15.00;99.90;;;;;;4781947;29;20157;-70
2022/09/30 10:01:35;;;;;;;5.50;5.00;;;14.70;99.90;;;;;;4789801;29;20450;-72
2022/09/30 10:04:24;;;;;;;6.47;5.88;;;14.80;99.90;;;;;;4791091;29;20421;-71
2022/09/30 10:06:53;;;;;;;6.88;6.28;;;14.80;99.90;;;;;;4802000;29;20044;-72
2022/09/30 10:09:34;;;;;;;6.10;5.60;;;14.80;99.90;;;;;;4790408;29;20066;-72
2022/09/30 10:12:05;;;;;;;7.10;6.45;;;15.20;99.90;;;;;;4787669;29;20142;-72
2022/09/30 10:14:51;;;;;;;6.80;6.28;;;15.00;99.90;;;;;;4806342;29;20105;-72
2022/09/30 10:17:49;;;;;;;7.18;6.47;;;15.20;99.90;;;;;;4780864;30;20088;-71
2022/09/30 10:20:15;;;;;;;7.05;6.07;;;15.20;99.90;;;;;;4773983;29;20464;-71
2022/09/30 10:22:40;;;;;;;7.30;6.65;;;15.30;99.90;;;;;;4794195;29;20062;-71
2022/09/30 10:25:23;;;;;;;7.93;6.13;;;15.30;99.90;;;;;;4788464;29;20062;-71
2022/09/30 10:28:19;;;;;;;;;;;15.30;99.90;;;;;;4804781;29;20507;-71
2022/09/30 10:30:52;;;;;;;6.97;6.38;;;15.40;99.90;;;;;;4787869;29;19927;-71
2022/09/30 10:33:29;;;;;;;7.45;6.75;;;15.60;99.90;;;;;;4801627;29;20059;-71
2022/09/30 10:36:01;;;;;;;5.50;5.10;;;15.40;99.90;;;;;;4780804;29;20050;-72
2022/09/30 10:38:28;;;;;;;9.20;5.07;;;14.90;99.90;;;;;;4773112;29;20839;-71
2022/09/30 10:40:55;;;;;;;5.68;5.18;;;15.30;99.90;;;;;;4795462;29;20058;-71
2022/09/30 10:43:26;;;;;;;5.47;4.97;;;15.40;99.90;;;;;;4802929;29;20127;-71
2022/09/30 10:45:52;;;;;;;6.00;4.90;;;16.00;99.90;;;;;;4774915;29;20054;-71
2022/09/30 10:48:21;;;;;;;5.45;4.93;;;15.60;99.90;;;;;;4788223;29;20055;-71
2022/09/30 10:50:52;;;;;;;6.22;4.95;;;15.50;99.90;;;;;;4789256;29;20060;-71
2022/09/30 10:53:24;;;;;;;5.30;4.80;;;15.80;99.90;;;;;;4772468;30;20138;-71
2022/09/30 10:55:52;;;;;;;5.70;4.18;;;15.90;99.90;;;;;;4776519;29;20058;-71
2022/09/30 10:58:42;;;;;;;3.88;3.55;;;15.80;99.90;;;;;;4788536;29;20066;-71
2022/09/30 11:09:57;;;;;;;4.13;3.30;;;15.90;99.90;;;;;;4787960;30;20047;-71
2022/09/30 11:17:12;;;;;;;3.88;3.47;;;16.10;99.90;;;;;;4790466;29;20056;-71
2022/09/30 11:20:18;;;;;;;4.70;3.50;;;16.10;99.90;;;;;;4772320;30;20047;-70
2022/09/30 11:23:03;;;;;;;3.63;3.30;;;16.10;99.90;;;;;;4772271;30;20412;-70
2022/09/30 11:29:33;;;;;;;4.05;3.70;;;16.20;99.90;;;;;;4805662;29;20055;-71
2022/09/30 11:32:27;;;;;;;3.53;3.22;;;16.30;99.90;;;;;;4771851;29;20055;-70
2022/09/30 11:43:24;;;;;;;3.92;3.50;;;16.20;99.90;;;;;;4789616;29;20467;-70
2022/09/30 11:47:05;;;;;;;5.15;3.53;;;16.40;99.90;;;;;;4793512;29;20180;-70
2022/09/30 12:09:51;;;;;;;5.18;4.68;;;16.80;99.90;;;;;;4787174;29;20083;-70
2022/09/30 13:04:05;;;;;;;9.63;8.75;;;17.00;99.90;;;;;;4790394;30;20523;-70
2022/09/30 13:07:12;;;;;;;10.30;9.40;;;17.00;99.90;;;;;;4775456;29;20074;-70
2022/09/30 13:10:41;;;;;;;10.63;9.57;;;17.40;99.90;;;;;;4781996;29;20485;-70
2022/09/30 13:13:35;;;;;;;10.65;9.68;;;17.20;99.90;;;;;;4805843;29;20090;-67
2022/09/30 13:16:05;;;;;;;13.07;11.48;;;17.20;99.90;;;;;;4791269;29;20065;-70
2022/09/30 13:19:02;;;;;;;12.23;11.13;;;17.10;99.90;;;;;;4791124;29;20059;-70
2022/09/30 13:29:18;;;;;;;13.02;11.73;;;16.80;99.90;;;;;;4752137;30;20100;-67
2022/09/30 13:31:44;;;;;;;15.80;14.30;;;16.90;99.90;;;;;;4743229;29;20101;-67
2022/09/30 13:38:52;;;;;;;12.75;11.57;;;16.80;99.90;;;;;;4771897;29;20112;-70
2022/09/30 13:53:57;;;;;;;;;;;;;;;;;;;;;
2022/09/30 14:00:19;;;;;;;11.65;10.68;;;;;;;;;;4749287;30;20067;-69
2022/09/30 14:03:03;;;;;;;13.57;12.23;;;16.70;99.90;;;;;;4771622;30;20062;-69
2022/09/30 14:05:52;;;;;;;13.73;12.43;;;16.70;99.90;;;;;;4771942;30;20152;-69
2022/09/30 14:12:23;;;;;;;12.85;11.55;;;17.20;99.90;;;;;;4780993;30;20055;-69
2022/09/30 14:15:17;;;;;;;12.40;11.13;;;16.30;99.90;;;;;;4803152;29;20070;-70
2022/09/30 14:18:07;;;;;;;11.43;10.43;;;16.60;99.90;;;;;;4806001;29;20121;-69
2022/09/30 14:21:14;;;;;;;11.15;10.25;;;16.70;99.90;;;;;;4790774;29;20063;-69
2022/09/30 14:23:40;;;;;;;12.18;11.10;;;16.90;99.90;;;;;;4688850;30;20066;-69
2022/09/30 14:30:19;;;;;;;12.85;11.75;;;16.80;99.90;;;;;;4796389;29;20039;-68
2022/09/30 14:33:12;;;;;;;14.63;13.10;;;16.80;99.90;;;;;;4791088;29;20077;-68
2022/09/30 14:36:11;;;;;;;12.30;11.27;;;16.60;99.90;;;;;;4794015;29;20191;-69
2022/09/30 14:39:02;;;;;;;12.93;11.63;;;16.30;99.90;;;;;;4790383;29;20049;-69
2022/09/30 14:50:18;;;;;;;12.90;11.70;;;17.10;99.90;;;;;;4732595;30;20055;-69
2022/09/30 14:53:32;;;;;;;12.88;11.70;;;17.20;99.90;;;;;;4749357;30;20056;-68
2022/09/30 15:00:07;;;;;;;13.48;12.13;;;;;;;;;;4788704;30;20054;-69
2022/09/30 15:03:10;;;;;;;18.77;16.98;;;16.00;99.90;;;;;;4774699;29;20148;-69
2022/09/30 15:06:02;;;;;;;14.05;12.52;;;15.80;99.90;;;;;;4784121;29;20107;-69
2022/09/30 15:08:31;;;;;;;12.30;11.20;;;15.80;99.90;;;;;;4781858;30;20138;-69
2022/09/30 15:18:48;;;;;;;11.48;10.25;;;15.90;99.90;;;;;;4856724;24;20486;-69
2022/09/30 15:21:15;;;;;;;10.90;10.00;;;15.80;99.90;;;;;;4770956;30;20062;-69
2022/09/30 15:23:53;;;;;;;10.88;9.88;;;15.70;99.90;;;;;;4772228;30;20067;-69
2022/09/30 15:26:21;;;;;;;11.27;10.05;;;15.70;99.90;;;;;;4785568;30;20488;-68
2022/09/30 15:29:03;;;;;;;10.70;9.60;;;15.70;99.90;;;;;;4785894;30;20058;-69
2022/09/30 15:31:30;;;;;;;11.13;10.00;;;15.60;99.90;;;;;;4771258;30;20051;-69
2022/09/30 15:34:12;;;;;;;10.93;9.82;;;15.70;99.90;;;;;;4787473;30;20055;-69
2022/09/30 15:36:38;;;;;;;11.43;10.33;;;15.60;99.90;;;;;;4786289;29;20066;-69
2022/09/30 15:39:06;;;;;;;12.00;10.80;;;15.50;99.90;;;;;;4768117;30;20324;-69
2022/09/30 15:41:50;;;;;;;11.98;10.88;;;15.40;99.90;;;;;;4785806;30;20074;-69
2022/09/30 15:44:27;;;;;;;11.63;10.55;;;15.00;99.90;;;;;;4786790;30;20509;-68
2022/09/30 15:47:43;;;;;;;12.48;10.55;;;16.50;99.90;;;;;;4770901;30;20055;-68
2022/09/30 15:51:00;;;;;;;12.00;9.48;;;15.40;99.90;;;;;;4786945;30;20096;-69
2022/09/30 15:53:59;;;;;;;11.38;10.27;;;15.50;99.90;;;;;;4785754;29;20201;-68
2022/09/30 15:56:53;;;;;;;11.30;10.00;;;15.30;99.90;;;;;;4776332;30;20109;-68
2022/09/30 15:59:18;;;;;;;9.93;8.95;;;16.10;99.90;;;;;;4786371;29;20051;-68
2022/09/30 16:01:51;;;;;;;10.38;9.10;;;15.00;99.90;;;;;;4785677;29;20035;-68
2022/09/30 16:07:59;;;;;;;9.88;8.88;;;14.90;99.90;;;;;;4771257;30;20055;-68
2022/09/30 16:10:36;;;;;;;10.50;9.50;;;14.80;99.90;;;;;;4785830;30;20408;-68
2022/09/30 16:13:03;;;;;;;10.15;8.95;;;14.90;99.90;;;;;;4786656;30;20546;-68
2022/09/30 16:15:39;;;;;;;10.38;8.98;;;14.70;99.90;;;;;;4786896;30;20059;-69
2022/09/30 16:18:24;;;;;;;10.68;9.63;;;14.80;99.90;;;;;;4756643;30;20055;-69
2022/09/30 16:21:04;;;;;;;12.03;9.73;;;14.60;99.90;;;;;;4771470;30;20480;-69
2022/09/30 16:43:30;;;;;;;8.85;8.05;;;14.10;99.90;;;;;;4790981;30;20058;-69
2022/09/30 16:46:22;;;;;;;9.93;9.02;;;14.00;99.90;;;;;;4788286;30;20063;-68
2022/09/30 16:48:56;;;;;;;10.07;8.93;;;13.80;99.90;;;;;;4773064;30;20103;-69
2022/09/30 16:51:22;;;;;;;8.38;7.57;;;13.70;99.90;;;;;;4789849;30;20523;-68
2022/09/30 16:53:47;;;;;;;7.25;6.55;;;13.70;99.90;;;;;;4789171;30;20055;-66
2022/09/30 16:56:15;;;;;;;12.20;10.70;;;13.70;99.90;;;;;;4790240;30;20067;-67
2022/09/30 16:58:47;;;;;;;7.57;6.85;;;13.70;99.90;;;;;;4789178;30;20061;-66
2022/09/30 17:01:24;;;;;;;15.88;14.43;;;13.70;99.90;;;;;;4774495;30;20134;-66
2022/09/30 17:03:51;;;;;;;6.30;5.80;;;13.60;99.90;;;;;;4788529;30;20059;-67
2022/09/30 17:06:42;;;;;;;5.88;5.30;;;13.60;99.90;;;;;;4789488;30;20056;-67
2022/09/30 17:09:08;;;;;;;5.40;4.90;;;13.60;99.90;;;;;;4788880;30;20066;-67